createdAt,value
2023-02-19T00:01:15.673Z,9.13
2023-02-19T00:03:43.457Z,9.07
2023-02-19T00:06:11.660Z,9.10
2023-02-19T00:08:39.621Z,9.13
2023-02-19T00:11:08.320Z,9.12
2023-02-19T00:13:36.502Z,9.16
2023-02-19T00:16:06.032Z,9.13
2023-02-19T00:18:32.817Z,9.05
2023-02-19T00:20:59.522Z,9.05
2023-02-19T00:23:27.588Z,9.15
2023-02-19T00:25:54.419Z,9.22
2023-02-19T00:28:21.393Z,9.18
2023-02-19T00:30:48.226Z,9.13
2023-02-19T00:33:15.657Z,9.18
2023-02-19T00:35:42.547Z,9.18
2023-02-19T00:38:10.443Z,9.20
2023-02-19T00:40:39.601Z,9.18
2023-02-19T00:43:06.217Z,9.22
2023-02-19T00:45:32.932Z,9.20
2023-02-19T00:48:00.003Z,9.15
2023-02-19T00:50:26.772Z,9.12
2023-02-19T00:52:53.537Z,9.14
2023-02-19T00:55:20.343Z,9.19
2023-02-19T00:57:48.518Z,9.14
2023-02-19T01:00:15.644Z,9.11
2023-02-19T01:02:42.371Z,9.07
2023-02-19T01:05:09.064Z,9.07
2023-02-19T01:07:36.318Z,9.03
2023-02-19T01:10:03.576Z,9.08
2023-02-19T01:12:30.705Z,9.08
2023-02-19T01:14:58.909Z,9.03
2023-02-19T01:17:25.680Z,8.98
2023-02-19T01:19:52.777Z,8.90
2023-02-19T01:22:19.516Z,8.92
2023-02-19T01:24:46.227Z,8.91
2023-02-19T01:27:12.942Z,8.88
2023-02-19T01:29:39.860Z,8.79
2023-02-19T01:32:07.996Z,8.74
2023-02-19T01:34:34.747Z,8.74
2023-02-19T01:37:01.416Z,8.67
2023-02-19T01:39:28.284Z,8.65
2023-02-19T01:41:55.144Z,8.62
2023-02-19T01:45:13.865Z,8.57
2023-02-19T01:47:42.607Z,8.50
2023-02-19T01:50:09.498Z,8.57
2023-02-19T01:52:36.904Z,8.58
2023-02-19T01:55:07.857Z,8.57
2023-02-19T01:57:39.796Z,8.55
2023-02-19T02:00:10.093Z,8.55
2023-02-19T02:02:41.575Z,8.51
2023-02-19T02:05:18.057Z,8.54
2023-02-19T02:07:44.856Z,8.50
2023-02-19T02:10:11.681Z,8.47
2023-02-19T02:12:38.439Z,8.45
2023-02-19T02:15:06.369Z,8.51
2023-02-19T02:17:39.259Z,8.52
2023-02-19T02:20:32.142Z,8.63
2023-02-19T02:23:04.696Z,8.60
2023-02-19T02:25:58.836Z,8.58
2023-02-19T02:28:46.840Z,8.62
2023-02-19T02:31:17.146Z,8.65
2023-02-19T02:33:51.742Z,8.68
2023-02-19T02:36:21.229Z,8.64
2023-02-19T02:38:49.363Z,8.65
2023-02-19T02:41:21.226Z,8.64
2023-02-19T02:43:47.995Z,8.64
2023-02-19T02:46:22.805Z,8.66
2023-02-19T02:48:55.250Z,8.65
2023-02-19T02:51:27.378Z,8.62
2023-02-19T02:54:10.087Z,8.59
2023-02-19T02:56:41.030Z,8.55
2023-02-19T02:59:10.534Z,8.52
2023-02-19T03:01:42.861Z,8.54
2023-02-19T03:04:14.021Z,8.50
2023-02-19T03:06:42.498Z,8.48
2023-02-19T03:09:15.216Z,8.40
2023-02-19T03:11:46.694Z,8.43
2023-02-19T03:14:17.998Z,8.45
2023-02-19T03:16:51.397Z,8.39
2023-02-19T03:19:20.356Z,8.38
2023-02-19T03:21:55.073Z,8.36
2023-02-19T03:24:27.216Z,8.37
2023-02-19T03:26:55.755Z,8.36
2023-02-19T03:29:26.764Z,8.33
2023-02-19T03:32:06.919Z,8.31
2023-02-19T03:34:37.058Z,8.30
2023-02-19T03:37:10.675Z,8.29
2023-02-19T03:39:37.689Z,8.29
2023-02-19T03:42:14.372Z,8.29
2023-02-19T03:44:49.502Z,8.31
2023-02-19T03:47:23.986Z,8.28
2023-02-19T03:49:58.768Z,8.28
2023-02-19T03:52:37.270Z,8.26
2023-02-19T03:55:08.526Z,8.25
2023-02-19T03:57:45.957Z,8.25
2023-02-19T04:00:18.051Z,8.25
2023-02-19T04:02:49.061Z,8.26
2023-02-19T04:05:19.569Z,8.24
2023-02-19T04:07:50.274Z,8.24
2023-02-19T04:10:21.751Z,8.25
2023-02-19T04:12:57.588Z,8.27
2023-02-19T04:15:28.614Z,8.25
2023-02-19T04:18:00.398Z,8.25
2023-02-19T04:20:30.756Z,8.18
2023-02-19T04:22:58.011Z,8.19
2023-02-19T04:25:27.739Z,8.14
2023-02-19T04:27:54.472Z,8.13
2023-02-19T04:30:22.069Z,8.14
2023-02-19T04:32:48.851Z,8.08
2023-02-19T04:35:16.996Z,8.06
2023-02-19T04:37:43.715Z,8.02
2023-02-19T04:40:11.066Z,8.05
2023-02-19T04:42:37.850Z,8.00
2023-02-19T04:45:05.372Z,8.06
2023-02-19T04:47:32.728Z,8.06
2023-02-19T04:49:59.480Z,8.05
2023-02-19T04:52:27.592Z,8.07
2023-02-19T04:54:54.287Z,8.07
2023-02-19T04:57:20.973Z,8.06
2023-02-19T04:59:47.716Z,8.09
2023-02-19T05:02:14.443Z,8.08
2023-02-19T05:04:41.660Z,8.04
2023-02-19T05:07:08.697Z,8.04
2023-02-19T05:09:37.019Z,8.05
2023-02-19T05:12:03.778Z,8.01
2023-02-19T05:14:30.485Z,8.03
2023-02-19T05:16:57.217Z,8.00
2023-02-19T05:19:23.910Z,7.98
2023-02-19T05:21:50.515Z,7.98
2023-02-19T05:24:17.239Z,7.95
2023-02-19T05:26:45.666Z,7.94
2023-02-19T05:29:12.354Z,7.90
2023-02-19T05:31:39.287Z,7.92
2023-02-19T05:34:05.960Z,7.92
2023-02-19T05:36:32.793Z,7.88
2023-02-19T05:38:59.509Z,7.83
2023-02-19T05:41:28.481Z,7.85
2023-02-19T05:43:57.943Z,7.86
2023-02-19T05:46:27.189Z,7.81
2023-02-19T05:48:54.218Z,7.80
2023-02-19T05:51:22.915Z,7.76
2023-02-19T05:53:50.160Z,7.75
2023-02-19T05:56:31.810Z,7.74
2023-02-19T05:59:01.319Z,7.67
2023-02-19T06:01:29.014Z,7.66
2023-02-19T06:03:57.518Z,7.63
2023-02-19T06:06:25.967Z,7.52
2023-02-19T06:08:53.175Z,7.49
2023-02-19T06:11:20.296Z,7.45
2023-02-19T06:13:47.216Z,7.40
2023-02-19T06:16:15.374Z,7.38
2023-02-19T06:18:42.078Z,7.33
2023-02-19T06:21:11.282Z,7.15
2023-02-19T06:23:39.047Z,7.07
2023-02-19T06:26:08.060Z,6.97
2023-02-19T06:28:35.017Z,6.90
2023-02-19T06:31:01.753Z,6.87
2023-02-19T06:33:29.927Z,6.90
2023-02-19T06:35:58.399Z,6.90
2023-02-19T06:38:25.060Z,6.85
2023-02-19T06:40:51.888Z,6.73
2023-02-19T06:43:18.598Z,6.74
2023-02-19T06:45:45.479Z,6.66
2023-02-19T06:48:12.517Z,6.63
2023-02-19T06:50:40.526Z,6.62
2023-02-19T06:53:07.255Z,6.61
2023-02-19T06:55:34.000Z,6.62
2023-02-19T06:58:00.744Z,6.59
2023-02-19T07:00:27.836Z,6.57
2023-02-19T07:02:54.586Z,6.56
2023-02-19T07:05:21.323Z,6.45
2023-02-19T07:07:49.510Z,6.41
2023-02-19T07:10:16.865Z,6.34
2023-02-19T07:12:43.820Z,6.35
2023-02-19T07:15:10.630Z,6.33
2023-02-19T07:17:49.138Z,6.30
2023-02-19T07:20:16.029Z,6.28
2023-02-19T07:22:42.817Z,6.28
2023-02-19T07:25:10.991Z,6.29
2023-02-19T07:27:37.763Z,6.26
2023-02-19T07:30:05.158Z,6.23
2023-02-19T07:32:32.120Z,6.26
2023-02-19T07:34:59.217Z,6.28
2023-02-19T07:37:26.110Z,6.28
2023-02-19T07:39:52.806Z,6.31
2023-02-19T07:42:20.980Z,6.36
2023-02-19T07:44:47.690Z,6.41
2023-02-19T07:47:14.426Z,6.34
2023-02-19T07:49:41.208Z,6.36
2023-02-19T07:52:08.018Z,6.32
2023-02-19T07:54:53.120Z,6.32
2023-02-19T07:57:41.273Z,6.28
2023-02-19T08:00:08.802Z,6.32
2023-02-19T08:03:03.710Z,6.39
2023-02-19T08:05:34.397Z,6.31
2023-02-19T08:08:01.604Z,6.28
2023-02-19T08:10:28.509Z,6.32
2023-02-19T08:12:57.449Z,6.42
2023-02-19T08:15:24.438Z,6.37
2023-02-19T08:17:51.138Z,6.31
2023-02-19T08:20:17.962Z,6.40
2023-02-19T08:22:45.049Z,6.39
2023-02-19T08:25:11.717Z,6.35
2023-02-19T08:27:38.392Z,6.17
2023-02-19T08:30:07.743Z,6.01
2023-02-19T08:32:34.555Z,5.95
2023-02-19T08:35:01.194Z,5.91
2023-02-19T08:37:27.884Z,5.94
2023-02-19T08:39:54.508Z,5.82
2023-02-19T08:42:21.192Z,5.96
2023-02-19T08:44:47.884Z,5.98
2023-02-19T08:47:16.069Z,5.93
2023-02-19T08:49:42.726Z,5.95
2023-02-19T08:52:09.406Z,5.97
2023-02-19T08:54:37.255Z,5.86
2023-02-19T08:57:04.056Z,6.05
2023-02-19T08:59:30.825Z,6.12
2023-02-19T09:01:58.487Z,6.12
2023-02-19T09:04:27.097Z,6.18
2023-02-19T09:06:54.422Z,6.16
2023-02-19T09:09:21.175Z,6.22
2023-02-19T09:11:49.342Z,6.13
2023-02-19T09:14:16.121Z,6.16
2023-02-19T09:16:42.857Z,6.30
2023-02-19T09:19:09.575Z,6.31
2023-02-19T09:21:37.702Z,6.52
2023-02-19T09:24:04.951Z,6.47
2023-02-19T09:26:31.631Z,6.56
2023-02-19T09:28:58.455Z,6.71
2023-02-19T09:31:25.210Z,6.89
2023-02-19T09:33:51.895Z,7.12
2023-02-19T09:36:18.844Z,7.08
2023-02-19T09:38:47.051Z,7.09
2023-02-19T09:41:18.654Z,7.13
2023-02-19T09:43:46.350Z,7.10
2023-02-19T09:46:23.870Z,7.04
2023-02-19T09:48:52.474Z,7.19
2023-02-19T09:51:19.732Z,7.10
2023-02-19T09:53:52.120Z,7.00
2023-02-19T09:56:19.071Z,6.93
2023-02-19T09:58:48.815Z,6.91
2023-02-19T10:01:15.603Z,6.68
2023-02-19T10:03:46.091Z,6.56
2023-02-19T10:06:18.012Z,6.56
2023-02-19T10:08:48.378Z,6.35
2023-02-19T10:11:16.258Z,6.35
2023-02-19T10:13:45.880Z,6.31
2023-02-19T10:16:15.546Z,6.37
2023-02-19T10:18:44.600Z,6.32
2023-02-19T10:21:16.371Z,6.34
2023-02-19T10:23:44.203Z,6.47
2023-02-19T10:26:12.340Z,6.39
2023-02-19T10:28:39.083Z,6.61
2023-02-19T10:31:15.789Z,6.65
2023-02-19T10:33:49.212Z,6.71
2023-02-19T10:36:25.231Z,6.70
2023-02-19T10:38:53.023Z,6.83
2023-02-19T10:41:24.102Z,6.96
2023-02-19T10:43:55.300Z,6.88
2023-02-19T10:46:24.469Z,7.22
2023-02-19T10:48:53.635Z,7.12
2023-02-19T10:51:20.938Z,7.27
2023-02-19T10:53:49.467Z,7.40
2023-02-19T10:56:23.063Z,7.47
2023-02-19T10:58:51.789Z,7.59
2023-02-19T11:01:20.658Z,7.63
2023-02-19T11:03:49.211Z,7.35
2023-02-19T11:06:18.595Z,7.36
2023-02-19T11:08:51.781Z,7.62
2023-02-19T11:11:24.400Z,7.77
2023-02-19T11:13:54.494Z,7.62
2023-02-19T11:16:21.424Z,7.76
2023-02-19T11:18:57.020Z,7.42
2023-02-19T11:21:27.709Z,7.65
2023-02-19T11:23:55.822Z,7.30
2023-02-19T11:26:25.907Z,7.36
2023-02-19T11:28:58.096Z,7.44
2023-02-19T11:31:27.028Z,7.41
2023-02-19T11:33:57.087Z,7.31
2023-02-19T11:36:30.858Z,7.37
2023-02-19T11:38:59.682Z,7.52
2023-02-19T11:41:43.137Z,7.70
2023-02-19T11:44:25.059Z,7.83
2023-02-19T11:47:01.242Z,7.71
2023-02-19T11:49:41.545Z,7.76
2023-02-19T11:52:24.787Z,7.74
2023-02-19T11:54:55.656Z,7.87
2023-02-19T11:57:35.853Z,8.12
2023-02-19T12:00:20.701Z,8.46
2023-02-19T12:03:13.638Z,8.39
2023-02-19T12:06:06.303Z,8.48
2023-02-19T12:08:52.771Z,8.06
2023-02-19T12:11:35.306Z,8.16
2023-02-19T12:14:33.973Z,8.21
2023-02-19T12:17:08.854Z,8.01
2023-02-19T12:19:48.110Z,7.67
2023-02-19T12:22:28.434Z,7.74
2023-02-19T12:25:25.566Z,7.79
2023-02-19T12:28:10.547Z,7.77
2023-02-19T12:30:58.545Z,7.75
2023-02-19T12:33:57.874Z,7.66
2023-02-19T12:36:33.015Z,7.47
2023-02-19T12:39:10.066Z,7.66
2023-02-19T12:41:44.519Z,7.50
2023-02-19T12:44:17.148Z,7.60
2023-02-19T12:46:49.189Z,7.60
2023-02-19T12:49:22.859Z,7.57
2023-02-19T12:51:52.041Z,7.72
2023-02-19T12:54:24.414Z,7.56
2023-02-19T12:56:57.636Z,7.64
2023-02-19T12:59:31.605Z,7.48
2023-02-19T13:02:05.250Z,7.47
2023-02-19T13:04:42.664Z,7.42
2023-02-19T13:07:13.772Z,7.32
2023-02-19T13:09:47.438Z,7.32
2023-02-19T13:12:20.468Z,7.27
2023-02-19T13:14:51.917Z,7.32
2023-02-19T13:17:25.407Z,7.29
2023-02-19T13:19:58.527Z,7.35
2023-02-19T13:22:34.402Z,7.47
2023-02-19T13:25:02.834Z,7.58
2023-02-19T13:27:52.690Z,7.76
2023-02-19T13:30:32.601Z,7.64
2023-02-19T13:33:11.613Z,7.89
2023-02-19T13:36:04.994Z,8.00
2023-02-19T13:38:33.108Z,7.79
2023-02-19T13:41:00.538Z,7.79
2023-02-19T13:43:30.064Z,7.99
2023-02-19T13:45:59.903Z,7.82
2023-02-19T13:48:29.320Z,7.88
2023-02-19T13:51:33.400Z,8.17
2023-02-19T13:54:01.911Z,8.26
2023-02-19T13:56:39.538Z,8.19
2023-02-19T13:59:40.160Z,8.54
2023-02-19T14:02:14.134Z,8.44
2023-02-19T14:04:53.905Z,8.27
2023-02-19T14:07:52.256Z,8.27
2023-02-19T14:10:57.619Z,8.45
2023-02-19T14:13:58.729Z,8.50
2023-02-19T14:16:56.582Z,8.39
2023-02-19T14:19:46.714Z,8.26
2023-02-19T14:22:51.893Z,8.19
2023-02-19T14:25:28.948Z,8.20
2023-02-19T14:28:01.285Z,8.29
2023-02-19T14:30:28.877Z,8.21
2023-02-19T14:33:09.850Z,8.29
2023-02-19T14:35:41.375Z,8.19
2023-02-19T14:38:17.089Z,8.14
2023-02-19T14:40:47.257Z,7.98
2023-02-19T14:43:17.977Z,7.77
2023-02-19T14:45:48.562Z,7.70
2023-02-19T14:48:22.985Z,7.83
2023-02-19T14:50:53.240Z,7.86
2023-02-19T14:53:23.022Z,7.87
2023-02-19T14:55:51.655Z,7.93
2023-02-19T14:58:24.523Z,7.73
2023-02-19T15:00:51.384Z,7.65
2023-02-19T15:03:28.004Z,7.57
2023-02-19T15:05:57.597Z,7.61
2023-02-19T15:08:38.082Z,7.66
2023-02-19T15:11:10.138Z,7.63
2023-02-19T15:13:39.985Z,7.61
2023-02-19T15:16:07.746Z,7.49
2023-02-19T15:18:34.535Z,7.52
2023-02-19T15:21:03.526Z,7.44
2023-02-19T15:23:32.820Z,7.31
2023-02-19T15:26:00.018Z,7.21
2023-02-19T15:28:31.446Z,7.24
2023-02-19T15:31:15.537Z,7.21
2023-02-19T15:33:50.373Z,7.20
2023-02-19T15:36:24.967Z,7.14
2023-02-19T15:38:57.252Z,7.11
2023-02-19T15:41:27.342Z,7.10
2023-02-19T15:43:59.438Z,7.06
2023-02-19T15:46:28.167Z,6.97
2023-02-19T15:49:02.249Z,6.83
2023-02-19T15:51:35.222Z,6.92
2023-02-19T15:54:09.216Z,6.80
2023-02-19T15:56:41.447Z,6.81
2023-02-19T15:59:18.744Z,6.74
2023-02-19T16:01:47.266Z,6.76
2023-02-19T16:04:16.072Z,6.71
2023-02-19T16:06:55.528Z,6.64
2023-02-19T16:09:24.148Z,6.67
2023-02-19T16:11:52.846Z,6.64
2023-02-19T16:14:24.878Z,6.57
2023-02-19T16:16:55.570Z,6.59
2023-02-19T16:19:25.488Z,6.61
2023-02-19T16:21:53.871Z,6.59
2023-02-19T16:24:30.059Z,6.51
2023-02-19T16:26:57.586Z,6.49
2023-02-19T16:29:26.764Z,6.52
2023-02-19T16:31:58.854Z,6.46
2023-02-19T16:34:39.406Z,6.49
2023-02-19T16:37:34.116Z,6.44
2023-02-19T16:40:34.644Z,6.43
2023-02-19T16:43:29.991Z,6.37
2023-02-19T16:45:57.095Z,6.40
2023-02-19T16:48:25.203Z,6.42
2023-02-19T16:50:52.141Z,6.37
2023-02-19T16:53:21.009Z,6.33
2023-02-19T16:55:48.722Z,6.31
2023-02-19T16:58:15.618Z,6.27
2023-02-19T17:00:42.555Z,6.31
2023-02-19T17:03:12.268Z,6.31
2023-02-19T17:05:40.682Z,6.31
2023-02-19T17:08:22.837Z,6.29
2023-02-19T17:10:49.539Z,6.32
2023-02-19T17:13:16.339Z,6.30
2023-02-19T17:15:43.164Z,6.32
2023-02-19T17:18:11.217Z,6.29
2023-02-19T17:20:40.613Z,6.27
2023-02-19T17:23:07.321Z,6.30
2023-02-19T17:25:34.035Z,6.29
2023-02-19T17:28:00.813Z,6.29
2023-02-19T17:30:29.939Z,6.29
2023-02-19T17:32:56.908Z,6.25
2023-02-19T17:35:24.044Z,6.27
2023-02-19T17:37:53.473Z,6.25
2023-02-19T17:40:32.372Z,6.24
2023-02-19T17:43:01.266Z,6.21
2023-02-19T17:45:29.806Z,6.20
2023-02-19T17:47:57.546Z,6.20
2023-02-19T17:50:26.074Z,6.20
2023-02-19T17:52:54.454Z,6.16
2023-02-19T17:55:21.369Z,6.16
2023-02-19T17:57:49.848Z,6.12
2023-02-19T18:00:20.120Z,6.10
2023-02-19T18:02:46.764Z,6.07
2023-02-19T18:05:13.541Z,5.99
2023-02-19T18:07:40.208Z,5.91
2023-02-19T18:10:10.115Z,5.88
2023-02-19T18:12:38.298Z,5.83
2023-02-19T18:15:05.788Z,5.78
2023-02-19T18:17:32.600Z,5.71
2023-02-19T18:19:59.509Z,5.68
2023-02-19T18:22:26.782Z,5.67
2023-02-19T18:24:53.817Z,5.66
2023-02-19T18:27:22.077Z,5.64
2023-02-19T18:29:50.704Z,5.60
2023-02-19T18:32:17.990Z,5.56
2023-02-19T18:34:48.605Z,5.43
2023-02-19T18:37:15.478Z,5.23
2023-02-19T18:39:42.224Z,5.22
2023-02-19T18:42:08.906Z,5.16
2023-02-19T18:44:37.031Z,5.06
2023-02-19T18:47:05.358Z,4.95
2023-02-19T18:49:32.139Z,4.89
2023-02-19T18:51:58.948Z,4.81
2023-02-19T18:54:25.659Z,4.71
2023-02-19T18:56:52.726Z,4.68
2023-02-19T18:59:19.556Z,4.67
2023-02-19T19:01:47.684Z,4.61
2023-02-19T19:04:14.516Z,4.54
2023-02-19T19:06:41.356Z,4.46
2023-02-19T19:09:10.578Z,4.41
2023-02-19T19:11:39.040Z,4.41
2023-02-19T19:14:06.118Z,4.42
2023-02-19T19:16:32.819Z,4.36
2023-02-19T19:19:00.876Z,4.35
2023-02-19T19:21:27.727Z,4.30
2023-02-19T19:23:54.808Z,4.25
2023-02-19T19:26:21.703Z,4.27
2023-02-19T19:28:48.607Z,4.25
2023-02-19T19:31:17.396Z,4.29
2023-02-19T19:33:46.336Z,4.25
2023-02-19T19:36:18.135Z,4.29
2023-02-19T19:38:45.597Z,4.30
2023-02-19T19:41:14.467Z,4.22
2023-02-19T19:43:41.125Z,4.20
2023-02-19T19:46:07.915Z,4.11
2023-02-19T19:48:35.106Z,4.10
2023-02-19T19:51:01.763Z,4.04
2023-02-19T19:53:29.908Z,4.00
2023-02-19T19:55:56.636Z,4.00
2023-02-19T19:58:23.447Z,3.99
2023-02-19T20:00:50.661Z,4.11
2023-02-19T20:03:17.890Z,4.13
2023-02-19T20:05:44.754Z,4.12
2023-02-19T20:08:11.615Z,4.09
2023-02-19T20:10:40.170Z,4.14
2023-02-19T20:13:06.909Z,4.16
2023-02-19T20:15:34.597Z,4.20
2023-02-19T20:18:01.712Z,4.24
2023-02-19T20:20:28.884Z,4.28
2023-02-19T20:22:55.636Z,4.32
2023-02-19T20:25:23.364Z,4.44
2023-02-19T20:27:52.890Z,4.33
2023-02-19T20:30:21.221Z,4.30
2023-02-19T20:32:50.539Z,4.30
2023-02-19T20:35:17.834Z,4.26
2023-02-19T20:37:44.904Z,4.23
2023-02-19T20:40:12.396Z,4.17
2023-02-19T20:42:39.483Z,4.14
2023-02-19T20:45:09.055Z,4.11
2023-02-19T20:47:35.925Z,4.20
2023-02-19T20:50:02.825Z,4.21
2023-02-19T20:52:29.570Z,4.23
2023-02-19T20:54:57.275Z,4.22
2023-02-19T20:57:24.106Z,4.21
2023-02-19T20:59:50.994Z,4.23
2023-02-19T21:02:20.850Z,4.21
2023-02-19T21:04:47.462Z,4.21
2023-02-19T21:07:14.599Z,4.22
2023-02-19T21:09:41.652Z,4.25
2023-02-19T21:12:08.680Z,4.30
2023-02-19T21:14:35.388Z,4.28
2023-02-19T21:17:02.185Z,4.19
2023-02-19T21:19:30.719Z,4.21
2023-02-19T21:21:58.073Z,4.17
2023-02-19T21:24:25.130Z,4.21
2023-02-19T21:26:51.804Z,4.22
2023-02-19T21:29:21.154Z,4.21
2023-02-19T21:31:51.208Z,4.23
2023-02-19T21:34:20.143Z,4.25
2023-02-19T21:36:48.891Z,4.28
2023-02-19T21:39:18.252Z,4.30
2023-02-19T21:41:45.742Z,4.26
2023-02-19T21:44:13.352Z,4.25
2023-02-19T21:46:41.415Z,4.24
2023-02-19T21:49:08.395Z,4.26
2023-02-19T21:51:37.155Z,4.30
2023-02-19T21:54:07.798Z,4.29
2023-02-19T21:56:36.577Z,4.35
2023-02-19T21:59:04.330Z,4.45
2023-02-19T22:01:32.749Z,4.48
2023-02-19T22:04:00.293Z,4.52
2023-02-19T22:06:29.945Z,4.64
2023-02-19T22:08:57.569Z,4.72
2023-02-19T22:11:28.462Z,4.76
2023-02-19T22:13:55.972Z,4.81
2023-02-19T22:16:23.339Z,4.86
2023-02-19T22:18:53.286Z,4.92
2023-02-19T22:21:22.555Z,4.95
2023-02-19T22:23:51.527Z,4.96
2023-02-19T22:26:20.105Z,5.06
2023-02-19T22:28:48.938Z,5.08
2023-02-19T22:31:17.077Z,5.10
2023-02-19T22:33:44.236Z,5.14
2023-02-19T22:36:19.474Z,5.23
2023-02-19T22:38:47.186Z,5.28
2023-02-19T22:41:17.668Z,5.35
2023-02-19T22:43:45.106Z,5.36
2023-02-19T22:46:15.625Z,5.38
2023-02-19T22:48:42.885Z,5.35
2023-02-19T22:51:10.804Z,5.38
2023-02-19T22:53:37.541Z,5.39
2023-02-19T22:56:04.462Z,5.36
2023-02-19T22:58:31.129Z,5.37
2023-02-19T23:00:57.888Z,5.34
2023-02-19T23:03:26.026Z,5.35
2023-02-19T23:05:52.732Z,5.33
2023-02-19T23:08:19.451Z,5.35
2023-02-19T23:10:46.305Z,5.39
2023-02-19T23:13:13.369Z,5.42
2023-02-19T23:15:40.290Z,5.46
2023-02-19T23:18:06.925Z,5.44
2023-02-19T23:20:35.025Z,5.45
2023-02-19T23:23:01.668Z,5.45
2023-02-19T23:25:28.339Z,5.42
2023-02-19T23:27:55.412Z,5.43
2023-02-19T23:30:23.000Z,5.44
2023-02-19T23:32:49.668Z,5.42
2023-02-19T23:35:16.346Z,5.44
2023-02-19T23:37:44.781Z,5.45
2023-02-19T23:40:13.436Z,5.41
2023-02-19T23:42:40.274Z,5.43
2023-02-19T23:45:07.659Z,5.41
2023-02-19T23:47:34.444Z,5.42
2023-02-19T23:50:01.040Z,5.44
2023-02-19T23:52:27.842Z,5.50
2023-02-19T23:54:56.896Z,5.54
2023-02-19T23:57:23.577Z,5.54
2023-02-19T23:59:50.275Z,5.59
